createdAt,value
2022-08-10T00:01:08.489Z,1.30
2022-08-10T00:04:10.012Z,1.40
2022-08-10T00:07:22.699Z,1.20
2022-08-10T00:10:24.196Z,1.33
2022-08-10T00:13:26.082Z,1.40
2022-08-10T00:16:27.565Z,1.50
2022-08-10T00:19:29.071Z,1.13
2022-08-10T00:22:57.518Z,1.40
2022-08-10T00:25:59.787Z,1.30
2022-08-10T00:29:01.267Z,1.50
2022-08-10T00:32:02.890Z,1.55
2022-08-10T00:35:04.765Z,1.52
2022-08-10T00:38:06.276Z,1.40
2022-08-10T00:41:07.829Z,1.52
2022-08-10T00:44:09.335Z,1.60
2022-08-10T00:47:15.363Z,1.50
2022-08-10T00:53:34.544Z,1.27
2022-08-10T00:57:15.050Z,1.55
2022-08-10T01:00:00.097Z,1.67
2022-08-10T01:03:02.438Z,1.52
2022-08-10T01:06:15.170Z,1.40
2022-08-10T01:09:22.740Z,1.60
2022-08-10T01:12:40.310Z,1.30
2022-08-10T01:16:05.343Z,1.20
2022-08-10T01:19:20.480Z,1.58
2022-08-10T01:22:58.389Z,1.60
2022-08-10T01:26:30.712Z,1.50
2022-08-10T01:29:54.004Z,1.40
2022-08-10T01:36:16.387Z,1.30
2022-08-10T01:39:28.602Z,1.35
2022-08-10T01:45:44.966Z,1.42
2022-08-10T01:48:52.156Z,1.40
2022-08-10T01:51:55.255Z,1.25
2022-08-10T01:54:56.777Z,1.52
2022-08-10T01:57:58.769Z,1.60
2022-08-10T02:01:00.426Z,1.40
2022-08-10T02:04:07.142Z,1.30
2022-08-10T02:07:11.780Z,1.45
2022-08-10T02:10:13.704Z,1.70
2022-08-10T02:13:15.458Z,1.27
2022-08-10T02:16:20.503Z,1.20
2022-08-10T02:19:22.513Z,1.15
2022-08-10T02:22:38.134Z,1.40
2022-08-10T02:25:43.643Z,1.52
2022-08-10T02:28:45.507Z,1.50
2022-08-10T02:31:47.008Z,1.65
2022-08-10T02:34:52.898Z,1.42
2022-08-10T02:37:57.550Z,1.65
2022-08-10T02:45:12.998Z,1.30
2022-08-10T02:45:30.823Z,1.50
2022-08-10T02:48:39.144Z,1.27
2022-08-10T02:52:06.747Z,1.52
2022-08-10T02:55:17.839Z,1.60
2022-08-10T02:58:32.661Z,1.58
2022-08-10T03:01:36.880Z,1.77
2022-08-10T03:04:55.914Z,1.40
2022-08-10T03:08:02.168Z,1.50
2022-08-10T03:11:04.132Z,1.30
2022-08-10T03:14:05.591Z,1.58
2022-08-10T03:17:07.172Z,1.48
2022-08-10T03:20:36.979Z,1.17
2022-08-10T03:23:30.291Z,1.80
2022-08-10T03:26:31.939Z,1.60
2022-08-10T03:30:28.295Z,1.65
2022-08-10T03:32:54.966Z,1.48
2022-08-10T03:36:43.673Z,1.70
2022-08-10T03:39:18.166Z,1.25
2022-08-10T03:42:20.270Z,1.40
2022-08-10T03:45:21.778Z,1.58
2022-08-10T03:48:24.581Z,1.55
2022-08-10T03:51:34.662Z,2.40
2022-08-10T03:54:36.131Z,1.65
2022-08-10T03:57:44.004Z,1.90
2022-08-10T04:00:51.229Z,2.33
2022-08-10T04:04:10.817Z,2.22
2022-08-10T04:07:14.215Z,1.98
2022-08-10T04:10:15.712Z,2.83
2022-08-10T04:13:17.174Z,3.40
2022-08-10T04:16:18.681Z,5.00
2022-08-10T04:19:20.311Z,6.80
2022-08-10T04:22:22.532Z,6.30
2022-08-10T04:28:26.127Z,5.03
2022-08-10T04:31:27.604Z,4.88
2022-08-10T04:34:31.778Z,4.27
2022-08-10T04:37:33.373Z,3.15
2022-08-10T04:40:34.946Z,3.58
2022-08-10T04:43:36.584Z,3.25
2022-08-10T04:46:56.391Z,3.92
2022-08-10T04:49:59.542Z,5.75
2022-08-10T04:53:01.924Z,3.17
2022-08-10T04:56:03.563Z,3.03
2022-08-10T04:59:05.876Z,2.97
2022-08-10T05:02:28.498Z,2.85
2022-08-10T05:05:28.896Z,3.30
2022-08-10T05:08:30.400Z,2.97
2022-08-10T05:11:31.893Z,2.88
2022-08-10T05:14:33.393Z,2.77
2022-08-10T05:17:35.891Z,2.97
2022-08-10T05:20:37.864Z,3.00
2022-08-10T05:23:39.406Z,2.70
2022-08-10T05:26:55.251Z,2.85
2022-08-10T05:30:03.714Z,2.15
2022-08-10T05:33:08.786Z,2.20
2022-08-10T05:36:10.713Z,2.17
2022-08-10T05:39:12.291Z,2.00
2022-08-10T05:42:13.865Z,2.25
2022-08-10T05:45:24.232Z,2.45
2022-08-10T05:48:57.252Z,2.10
2022-08-10T05:51:47.323Z,2.47
2022-08-10T05:54:48.909Z,1.83
2022-08-10T05:57:51.532Z,2.45
2022-08-10T06:00:54.677Z,2.30
2022-08-10T06:03:59.636Z,2.40
2022-08-10T06:07:01.410Z,3.55
2022-08-10T06:10:03.029Z,5.75
2022-08-10T06:13:29.851Z,2.67
2022-08-10T06:16:33.296Z,3.65
2022-08-10T06:19:36.502Z,3.10
2022-08-10T06:22:40.058Z,2.50
2022-08-10T06:26:10.584Z,2.67
2022-08-10T06:29:10.256Z,3.00
2022-08-10T06:32:11.828Z,3.05
2022-08-10T06:35:13.396Z,4.18
2022-08-10T06:38:14.954Z,12.18
2022-08-10T06:41:20.979Z,13.55
2022-08-10T06:44:29.981Z,5.82
2022-08-10T06:47:37.683Z,1.85
2022-08-10T06:50:56.134Z,1.88
2022-08-10T06:54:02.936Z,1.63
2022-08-10T06:57:19.833Z,1.13
2022-08-10T07:00:21.489Z,1.45
2022-08-10T07:03:26.570Z,2.10
2022-08-10T07:06:28.563Z,1.38
2022-08-10T07:09:30.109Z,1.33
2022-08-10T07:12:31.679Z,1.48
2022-08-10T07:16:00.274Z,1.25
2022-08-10T07:18:56.485Z,1.50
2022-08-10T07:21:58.195Z,1.35
2022-08-10T07:28:02.054Z,1.23
2022-08-10T07:31:03.863Z,1.17
2022-08-10T07:34:29.556Z,1.40
2022-08-10T07:37:35.622Z,1.52
2022-08-10T07:40:37.216Z,1.08
2022-08-10T07:46:45.880Z,0.90
2022-08-10T07:49:47.426Z,1.10
2022-08-10T07:56:07.607Z,1.75
2022-08-10T08:02:23.605Z,0.90
2022-08-10T08:05:38.559Z,1.23
2022-08-10T08:08:47.589Z,1.15
2022-08-10T08:11:49.558Z,1.20
2022-08-10T08:14:51.368Z,0.85
2022-08-10T08:17:59.675Z,1.00
2022-08-10T08:21:02.690Z,1.20
2022-08-10T08:24:31.401Z,1.15
2022-08-10T08:27:34.835Z,1.23
2022-08-10T08:30:37.376Z,0.90
2022-08-10T08:33:41.540Z,1.10
2022-08-10T08:36:44.313Z,1.05
2022-08-10T08:39:47.241Z,1.27
2022-08-10T08:43:01.466Z,1.13
2022-08-10T08:46:28.879Z,1.10
2022-08-10T08:50:07.690Z,0.98
2022-08-10T08:54:01.901Z,1.23
2022-08-10T08:56:54.470Z,1.30
2022-08-10T09:00:10.049Z,1.00
2022-08-10T09:03:40.413Z,1.20
2022-08-10T09:07:03.256Z,0.98
2022-08-10T09:10:31.952Z,1.00
2022-08-10T09:13:42.533Z,0.95
2022-08-10T09:17:01.370Z,1.00
2022-08-10T09:20:18.307Z,1.00
2022-08-10T09:24:02.042Z,1.10
2022-08-10T09:26:51.499Z,1.00
2022-08-10T09:30:02.807Z,0.90
2022-08-10T09:36:59.372Z,1.30
2022-08-10T09:40:58.844Z,0.90
2022-08-10T09:43:28.241Z,0.90
2022-08-10T09:47:07.942Z,1.50
2022-08-10T09:51:09.328Z,0.93
2022-08-10T09:54:17.364Z,1.35
2022-08-10T09:57:44.401Z,0.98
2022-08-10T10:00:52.942Z,1.10
2022-08-10T10:04:16.493Z,0.90
2022-08-10T10:07:26.947Z,1.00
2022-08-10T10:10:51.875Z,1.35
2022-08-10T10:14:16.240Z,1.00
2022-08-10T10:17:18.878Z,0.90
2022-08-10T10:20:41.871Z,0.90
2022-08-10T10:24:21.332Z,0.90
2022-08-10T10:27:36.682Z,1.38
2022-08-10T10:31:21.667Z,1.20
2022-08-10T10:34:35.401Z,1.02
2022-08-10T10:38:02.495Z,0.88
2022-08-10T10:42:03.528Z,0.98
2022-08-10T10:45:06.755Z,1.20
2022-08-10T10:48:39.942Z,1.15
2022-08-10T10:51:44.857Z,1.30
2022-08-10T10:55:16.278Z,1.30
2022-08-10T10:58:50.818Z,1.30
2022-08-10T11:02:06.456Z,1.08
2022-08-10T11:05:23.161Z,0.90
2022-08-10T11:08:28.795Z,0.93
2022-08-10T11:12:01.978Z,0.90
2022-08-10T11:15:15.061Z,1.02
2022-08-10T11:18:27.561Z,1.10
2022-08-10T11:21:57.076Z,0.93
2022-08-10T11:25:03.015Z,0.90
2022-08-10T11:28:21.992Z,1.08
2022-08-10T11:31:40.226Z,1.35
2022-08-10T11:35:11.279Z,0.90
2022-08-10T11:38:51.980Z,1.20
2022-08-10T11:42:16.109Z,1.10
2022-08-10T11:45:35.209Z,1.20
2022-08-10T11:48:53.492Z,1.10
2022-08-10T11:52:00.494Z,0.80
2022-08-10T11:55:10.877Z,0.95
2022-08-10T11:58:32.383Z,0.70
2022-08-10T12:01:34.212Z,1.10
2022-08-10T12:04:35.743Z,1.05
2022-08-10T12:10:07.520Z,0.95
2022-08-10T12:14:32.470Z,1.35
2022-08-10T12:17:49.205Z,1.05
2022-08-10T12:20:54.079Z,1.25
2022-08-10T12:24:03.157Z,0.93
2022-08-10T12:27:13.011Z,0.80
2022-08-10T12:30:15.903Z,1.17
2022-08-10T12:33:29.322Z,0.90
2022-08-10T12:36:39.109Z,0.98
2022-08-10T12:40:33.797Z,1.33
2022-08-10T12:44:07.129Z,1.00
2022-08-10T12:47:05.739Z,0.90
2022-08-10T12:50:31.287Z,1.08
2022-08-10T12:53:47.538Z,0.90
2022-08-10T12:56:51.917Z,0.95
2022-08-10T13:00:00.555Z,2.03
2022-08-10T13:03:03.061Z,1.10
2022-08-10T13:06:05.036Z,1.10
2022-08-10T13:09:09.472Z,0.95
2022-08-10T13:12:35.624Z,1.15
2022-08-10T13:15:50.730Z,1.25
2022-08-10T13:18:52.888Z,1.15
2022-08-10T13:21:54.689Z,0.90
2022-08-10T13:24:57.983Z,1.10
2022-08-10T13:28:37.065Z,0.90
2022-08-10T13:32:09.049Z,0.90
2022-08-10T13:34:51.875Z,0.70
2022-08-10T13:37:55.621Z,1.25
2022-08-10T13:40:57.177Z,0.95
2022-08-10T13:44:00.908Z,0.90
2022-08-10T13:47:02.468Z,0.90
2022-08-10T13:50:08.128Z,1.30
2022-08-10T13:53:15.877Z,1.25
2022-08-10T13:56:17.562Z,1.20
2022-08-10T13:59:19.157Z,0.90
2022-08-10T14:02:45.303Z,1.13
2022-08-10T14:05:51.680Z,1.05
2022-08-10T14:09:11.580Z,1.00
2022-08-10T14:12:13.134Z,1.00
2022-08-10T14:15:16.525Z,1.02
2022-08-10T14:18:18.098Z,1.10
2022-08-10T14:21:19.792Z,0.98
2022-08-10T14:24:21.721Z,1.20
2022-08-10T14:27:23.273Z,0.80
2022-08-10T14:30:24.806Z,0.85
2022-08-10T14:33:33.132Z,1.20
2022-08-10T14:36:58.296Z,0.98
2022-08-10T14:40:02.672Z,0.90
2022-08-10T14:43:09.315Z,0.90
2022-08-10T14:46:11.756Z,1.00
2022-08-10T14:49:25.486Z,1.23
2022-08-10T14:52:27.597Z,1.15
2022-08-10T14:55:29.183Z,0.90
2022-08-10T14:58:59.126Z,1.00
2022-08-10T15:02:40.805Z,1.00
2022-08-10T15:05:39.893Z,0.90
2022-08-10T15:08:47.016Z,1.00
2022-08-10T15:12:13.349Z,1.00
2022-08-10T15:15:16.561Z,0.90
2022-08-10T15:18:26.316Z,0.90
2022-08-10T15:21:42.362Z,0.98
2022-08-10T15:25:03.731Z,0.70
2022-08-10T15:28:06.635Z,1.03
2022-08-10T15:31:08.241Z,0.90
2022-08-10T15:34:28.904Z,0.88
2022-08-10T15:37:36.337Z,1.10
2022-08-10T15:40:51.903Z,1.20
2022-08-10T15:43:53.725Z,1.00
2022-08-10T15:47:02.325Z,1.02
2022-08-10T15:50:06.979Z,1.10
2022-08-10T15:53:16.642Z,1.05
2022-08-10T15:56:28.395Z,1.00
2022-08-10T15:59:33.882Z,1.10
2022-08-10T16:02:53.620Z,0.98
2022-08-10T16:06:01.441Z,0.80
2022-08-10T16:10:22.539Z,1.00
2022-08-10T16:12:35.945Z,0.90
2022-08-10T16:15:37.570Z,1.23
2022-08-10T16:18:40.826Z,1.10
2022-08-10T16:21:42.574Z,1.30
2022-08-10T16:24:47.400Z,1.23
2022-08-10T16:27:49.029Z,1.00
2022-08-10T16:30:54.244Z,1.05
2022-08-10T16:33:58.000Z,1.42
2022-08-10T16:37:15.251Z,1.00
2022-08-10T16:40:16.874Z,1.08
2022-08-10T16:43:23.731Z,0.90
2022-08-10T16:46:25.625Z,1.20
2022-08-10T16:49:27.192Z,1.00
2022-08-10T16:52:29.623Z,0.98
2022-08-10T16:55:48.239Z,1.23
2022-08-10T16:58:54.497Z,1.35
2022-08-10T17:01:56.056Z,1.00
2022-08-10T17:04:57.908Z,1.02
2022-08-10T17:08:17.801Z,1.00
2022-08-10T17:11:20.853Z,1.15
2022-08-10T17:14:24.182Z,1.25
2022-08-10T17:17:31.165Z,1.10
2022-08-10T17:20:40.095Z,0.88
2022-08-10T17:23:46.856Z,0.90
2022-08-10T17:26:48.445Z,0.90
2022-08-10T17:29:59.010Z,0.93
2022-08-10T17:33:12.483Z,0.95
2022-08-10T17:36:14.024Z,1.08
2022-08-10T17:39:16.159Z,1.35
2022-08-10T17:42:22.054Z,1.00
2022-08-10T17:45:48.823Z,1.17
2022-08-10T17:48:51.508Z,0.90
2022-08-10T17:51:53.833Z,0.93
2022-08-10T17:54:57.547Z,0.90
2022-08-10T17:58:02.255Z,1.02
2022-08-10T18:01:41.287Z,1.10
2022-08-10T18:04:26.061Z,0.90
2022-08-10T18:07:38.458Z,1.00
2022-08-10T18:10:40.463Z,1.20
2022-08-10T18:13:55.285Z,1.17
2022-08-10T18:16:58.846Z,1.30
2022-08-10T18:20:04.303Z,1.20
2022-08-10T18:23:06.786Z,1.20
2022-08-10T18:26:10.682Z,1.20
2022-08-10T18:29:15.238Z,1.30
2022-08-10T18:32:21.609Z,1.00
2022-08-10T18:35:34.992Z,1.33
2022-08-10T18:38:38.287Z,1.00
2022-08-10T18:42:00.709Z,0.98
2022-08-10T18:45:09.595Z,1.05
2022-08-10T18:48:16.278Z,0.90
2022-08-10T18:51:27.745Z,1.20
2022-08-10T18:54:44.531Z,1.00
2022-08-10T18:58:08.575Z,1.30
2022-08-10T19:01:28.814Z,1.17
2022-08-10T19:04:49.149Z,1.10
2022-08-10T19:08:49.683Z,1.00
2022-08-10T19:12:00.843Z,0.90
2022-08-10T19:15:29.010Z,0.93
2022-08-10T19:18:32.312Z,1.17
2022-08-10T19:21:39.502Z,1.20
2022-08-10T19:24:44.699Z,1.00
2022-08-10T19:28:11.207Z,1.30
2022-08-10T19:31:19.220Z,1.08
2022-08-10T19:34:33.615Z,0.85
2022-08-10T19:37:59.879Z,1.55
2022-08-10T19:41:16.731Z,1.10
2022-08-10T19:44:42.264Z,0.90
2022-08-10T19:48:00.536Z,1.30
2022-08-10T19:51:10.103Z,1.05
2022-08-10T19:54:17.747Z,1.27
2022-08-10T19:57:37.721Z,1.83
2022-08-10T20:00:57.763Z,1.17
2022-08-10T20:04:05.111Z,1.00
2022-08-10T20:07:18.967Z,1.10
2022-08-10T20:10:24.337Z,1.20
2022-08-10T20:13:29.957Z,1.40
2022-08-10T20:16:33.086Z,1.08
2022-08-10T20:19:52.778Z,1.00
2022-08-10T20:23:05.335Z,1.30
2022-08-10T20:26:40.888Z,1.13
2022-08-10T20:30:12.960Z,1.10
2022-08-10T20:36:26.496Z,1.35
2022-08-10T20:39:42.437Z,1.27
2022-08-10T20:42:57.050Z,1.05
2022-08-10T20:46:08.924Z,1.60
2022-08-10T20:49:10.762Z,1.17
2022-08-10T20:52:12.342Z,1.10
2022-08-10T20:55:13.898Z,1.85
2022-08-10T20:58:50.037Z,1.10
2022-08-10T21:02:17.628Z,1.30
2022-08-10T21:05:52.816Z,1.20
2022-08-10T21:09:14.330Z,1.00
2022-08-10T21:12:22.544Z,1.20
2022-08-10T21:15:48.236Z,1.00
2022-08-10T21:19:15.122Z,1.10
2022-08-10T21:22:39.124Z,1.50
2022-08-10T21:25:49.224Z,1.00
2022-08-10T21:29:07.627Z,1.10
2022-08-10T21:32:48.207Z,1.00
2022-08-10T21:35:57.148Z,0.90
2022-08-10T21:39:06.299Z,1.20
2022-08-10T21:43:07.647Z,1.00
2022-08-10T21:46:54.796Z,1.00
2022-08-10T21:50:15.686Z,1.10
2022-08-10T21:53:57.202Z,1.23
2022-08-10T21:57:20.394Z,1.17
2022-08-10T22:00:40.588Z,1.20
2022-08-10T22:04:01.487Z,1.20
2022-08-10T22:07:22.480Z,0.90
2022-08-10T22:10:46.139Z,1.30
2022-08-10T22:14:09.351Z,1.08
2022-08-10T22:18:03.603Z,1.10
2022-08-10T22:21:45.357Z,0.90
2022-08-10T22:25:29.419Z,0.90
2022-08-10T22:28:49.486Z,1.13
2022-08-10T22:32:15.065Z,0.90
2022-08-10T22:35:51.432Z,1.10
2022-08-10T22:40:12.308Z,1.17
2022-08-10T22:43:10.526Z,1.20
2022-08-10T22:46:46.180Z,1.08
2022-08-10T22:49:51.881Z,1.05
2022-08-10T22:53:07.867Z,0.90
2022-08-10T22:56:27.923Z,0.90
2022-08-10T22:59:30.734Z,1.20
2022-08-10T23:02:33.786Z,0.98
2022-08-10T23:05:37.933Z,0.85
2022-08-10T23:08:48.204Z,0.93
2022-08-10T23:11:51.138Z,1.13
2022-08-10T23:15:11.794Z,1.00
2022-08-10T23:18:35.298Z,1.10
2022-08-10T23:22:03.343Z,1.08
2022-08-10T23:25:11.452Z,2.55
2022-08-10T23:28:13.376Z,1.00
2022-08-10T23:32:01.282Z,1.20
2022-08-10T23:34:39.989Z,1.00
2022-08-10T23:37:41.588Z,0.98
2022-08-10T23:40:47.258Z,1.13
2022-08-10T23:44:03.776Z,1.02
2022-08-10T23:47:06.026Z,1.23
2022-08-10T23:50:09.962Z,1.02
2022-08-10T23:53:13.736Z,1.20
2022-08-10T23:56:17.191Z,1.00
2022-08-10T23:59:21.534Z,1.30
